Terminal Aerodrome Forecast
Issued by NWS Twin Cities, MN

Home | Current Version | Previous Version | Text Only | Print | Product List | Glossary On
Versions: 1 2 3 4 5 6 7 8 9 10 11 12 13 14 15 16 17
000
FTUS43 KMPX 210800 AAA
TAFEAU
TAF AMD
KEAU 210803Z 2108/2206 16008KT 4SM BR OVC015
     FM211300 15008KT 4SM -FZDZ BR OVC008
     FM211600 15010KT 6SM -RA BR OVC009
     FM212100 15012KT 6SM BR OVC012
     FM220300 14013KT 5SM -RA OVC008=

USA.gov is the U.S. government's official web portal to all federal, state and local government web resources and services.